createdAt,value
2022-11-28T00:02:13.803Z,7.78
2022-11-28T00:07:18.931Z,7.22
2022-11-28T00:12:27.862Z,6.68
2022-11-28T00:17:32.907Z,7.93
2022-11-28T00:22:38.111Z,10.10
2022-11-28T00:27:45.711Z,10.32
2022-11-28T00:32:50.747Z,9.18
2022-11-28T00:37:55.674Z,7.82
2022-11-28T00:43:03.483Z,8.90
2022-11-28T00:48:09.228Z,9.32
2022-11-28T00:53:14.238Z,9.13
2022-11-28T00:58:21.893Z,8.77
2022-11-28T01:03:26.897Z,9.43
2022-11-28T01:08:32.094Z,8.18
2022-11-28T01:13:39.666Z,8.63
2022-11-28T01:18:44.824Z,8.77
2022-11-28T01:23:49.985Z,8.38
2022-11-28T01:28:57.722Z,9.63
2022-11-28T01:34:02.890Z,8.95
2022-11-28T01:39:08.003Z,10.93
2022-11-28T01:44:42.935Z,10.55
2022-11-28T01:49:52.460Z,9.98
2022-11-28T01:55:01.956Z,9.90
2022-11-28T02:00:10.732Z,8.38
2022-11-28T02:05:19.792Z,9.48
2022-11-28T02:10:27.629Z,9.40
2022-11-28T02:15:59.377Z,9.52
2022-11-28T02:21:25.026Z,11.32
2022-11-28T02:27:10.171Z,9.30
2022-11-28T02:32:35.374Z,12.45
2022-11-28T02:37:44.025Z,11.50
2022-11-28T02:42:57.587Z,9.48
2022-11-28T02:48:07.215Z,9.13
2022-11-28T02:53:15.996Z,9.82
2022-11-28T02:58:21.371Z,8.77
2022-11-28T03:03:58.877Z,9.82
2022-11-28T03:09:12.455Z,7.88
2022-11-28T03:14:25.851Z,10.60
2022-11-28T03:19:37.361Z,10.27
2022-11-28T03:24:46.796Z,8.43
2022-11-28T03:29:54.192Z,9.45
2022-11-28T03:35:06.747Z,9.35
2022-11-28T03:40:15.810Z,10.07
2022-11-28T03:45:23.434Z,10.30
2022-11-28T03:50:34.576Z,10.40
2022-11-28T03:55:43.621Z,9.80
2022-11-28T04:00:52.195Z,8.90
2022-11-28T04:06:02.619Z,9.60
2022-11-28T04:11:12.046Z,9.68
2022-11-28T04:16:21.907Z,9.15
2022-11-28T04:21:32.451Z,9.82
2022-11-28T04:26:38.855Z,8.15
2022-11-28T04:31:45.430Z,7.65
2022-11-28T04:36:54.359Z,7.35
2022-11-28T04:42:02.072Z,7.30
2022-11-28T04:47:08.148Z,8.98
2022-11-28T04:52:19.005Z,7.63
2022-11-28T04:57:27.658Z,7.00
2022-11-28T05:02:32.875Z,7.38
2022-11-28T05:07:40.839Z,7.90
2022-11-28T05:12:46.304Z,7.68
2022-11-28T05:17:51.198Z,7.82
2022-11-28T05:22:58.913Z,8.10
2022-11-28T05:28:04.309Z,8.98
2022-11-28T05:33:09.333Z,9.27
2022-11-28T05:38:17.046Z,9.32
2022-11-28T05:43:22.056Z,7.53
2022-11-28T05:48:27.765Z,8.93
2022-11-28T05:53:35.493Z,8.93
2022-11-28T05:58:40.662Z,8.75
2022-11-28T06:03:46.596Z,8.05
2022-11-28T06:08:55.341Z,9.07
2022-11-28T06:14:00.456Z,8.02
2022-11-28T06:19:07.653Z,7.57
2022-11-28T06:24:15.587Z,6.75
2022-11-28T06:29:20.623Z,8.55
2022-11-28T06:34:25.673Z,8.15
2022-11-28T06:39:33.292Z,9.52
2022-11-28T06:44:38.384Z,8.15
2022-11-28T06:49:43.481Z,8.93
2022-11-28T06:54:51.383Z,7.82
2022-11-28T06:59:56.524Z,7.22
2022-11-28T07:05:01.511Z,7.60
2022-11-28T07:10:10.778Z,7.88
2022-11-28T07:15:16.093Z,7.85
2022-11-28T07:20:21.233Z,9.55
2022-11-28T07:25:28.892Z,12.38
2022-11-28T07:30:34.509Z,10.48
2022-11-28T07:35:39.604Z,10.05
2022-11-28T07:40:47.189Z,9.93
2022-11-28T07:46:01.008Z,10.15
2022-11-28T07:51:09.447Z,11.65
2022-11-28T07:56:18.611Z,11.98
2022-11-28T08:01:24.974Z,8.77
2022-11-28T08:06:31.964Z,11.95
2022-11-28T08:11:39.546Z,11.20
2022-11-28T08:16:45.373Z,10.57
2022-11-28T08:21:50.606Z,11.18
2022-11-28T08:26:58.376Z,10.80
2022-11-28T08:32:03.586Z,11.25
2022-11-28T08:37:08.877Z,10.95
2022-11-28T08:42:16.430Z,10.43
2022-11-28T08:47:21.633Z,9.65
2022-11-28T08:52:27.350Z,9.60
2022-11-28T08:57:35.060Z,13.02
2022-11-28T09:02:40.228Z,9.57
2022-11-28T09:07:45.581Z,11.85
2022-11-28T09:12:53.342Z,9.15
2022-11-28T09:17:58.515Z,9.82
2022-11-28T09:23:03.752Z,8.88
2022-11-28T09:28:11.553Z,10.23
2022-11-28T09:33:16.678Z,9.60
2022-11-28T09:38:21.832Z,8.27
2022-11-28T09:43:33.015Z,8.80
2022-11-28T09:48:40.409Z,8.57
2022-11-28T09:53:49.693Z,9.57
2022-11-28T09:58:59.265Z,10.50
2022-11-28T10:04:07.067Z,8.55
2022-11-28T10:09:21.708Z,8.57
2022-11-28T10:14:51.798Z,8.27
2022-11-28T10:43:22.507Z,8.02
2022-11-28T10:55:00.564Z,7.40
2022-11-28T11:01:08.613Z,7.63
2022-11-28T11:06:41.801Z,8.63
2022-11-28T11:12:04.854Z,8.60
2022-11-28T11:33:38.290Z,10.18
2022-11-28T11:38:49.763Z,7.20
2022-11-28T11:43:58.280Z,4.25
2022-11-28T11:49:32.506Z,6.68
2022-11-28T11:54:55.818Z,6.53
2022-11-28T13:47:46.067Z,7.60
2022-11-28T15:46:23.683Z,12.23
2022-11-28T15:51:32.911Z,10.15
2022-11-28T15:56:44.366Z,12.13
2022-11-28T16:01:57.830Z,9.60
2022-11-28T16:07:04.726Z,10.55
2022-11-28T16:12:17.252Z,10.35
2022-11-28T16:17:28.814Z,10.95
2022-11-28T16:22:37.513Z,10.05
2022-11-28T16:27:48.952Z,9.65
2022-11-28T16:32:58.419Z,11.52
2022-11-28T16:38:14.948Z,10.52
2022-11-28T16:43:25.071Z,10.95
2022-11-28T16:48:35.848Z,9.43
2022-11-28T16:53:47.340Z,8.98
2022-11-28T16:58:53.560Z,9.68
2022-11-28T17:04:01.367Z,9.82
2022-11-28T17:09:07.984Z,9.50
2022-11-28T17:14:22.703Z,8.45
2022-11-28T17:19:30.614Z,10.88
2022-11-28T17:24:38.156Z,9.10
2022-11-28T17:29:43.983Z,9.32
2022-11-28T17:35:06.654Z,14.65
2022-11-28T17:40:27.547Z,14.15
2022-11-28T17:46:05.558Z,10.18
2022-11-28T17:51:20.330Z,8.50
2022-11-28T17:56:33.082Z,9.23
2022-11-28T18:01:38.278Z,7.88
2022-11-28T18:06:49.486Z,9.02
2022-11-28T18:11:55.386Z,8.88
2022-11-28T18:17:02.869Z,8.93
2022-11-28T18:22:10.921Z,9.15
2022-11-28T18:27:16.206Z,7.53
2022-11-28T18:38:19.011Z,6.07
2022-11-28T18:43:26.840Z,7.07
2022-11-28T18:48:34.232Z,6.10
2022-11-28T18:53:42.857Z,6.13
2022-11-28T18:58:49.236Z,6.88
2022-11-28T19:03:58.522Z,9.90
2022-11-28T19:09:08.144Z,9.43
2022-11-28T19:14:22.264Z,8.32
2022-11-28T19:19:28.156Z,6.82
2022-11-28T19:24:38.171Z,7.25
2022-11-28T19:29:43.995Z,8.98
2022-11-28T19:34:52.431Z,6.75
2022-11-28T19:40:02.894Z,13.98
2022-11-28T19:45:09.418Z,7.38
2022-11-28T19:50:15.274Z,8.45
2022-11-28T19:55:23.596Z,6.95
2022-11-28T20:00:29.041Z,12.30
2022-11-28T20:05:34.785Z,8.73
2022-11-28T20:10:53.384Z,8.40
2022-11-28T20:16:01.437Z,8.13
2022-11-28T20:21:08.444Z,11.05
2022-11-28T20:26:17.267Z,15.38
2022-11-28T20:36:29.638Z,12.02
2022-11-28T20:41:40.048Z,14.63
2022-11-28T20:46:46.627Z,17.20
2022-11-28T20:51:56.037Z,15.32
2022-11-28T21:02:29.227Z,9.63
2022-11-28T21:07:34.518Z,7.85
2022-11-28T21:12:42.369Z,8.32
2022-11-28T21:17:47.978Z,19.38
2022-11-28T21:22:53.234Z,16.75
2022-11-28T21:28:02.282Z,16.25
2022-11-28T21:33:28.156Z,18.23
2022-11-28T21:38:34.659Z,13.52
2022-11-28T21:43:42.556Z,13.77
2022-11-28T21:48:47.794Z,19.52
2022-11-28T21:53:53.835Z,20.38
2022-11-28T21:59:14.003Z,13.35
2022-11-28T22:04:22.214Z,9.32
2022-11-28T22:09:27.434Z,13.57
2022-11-28T22:14:38.188Z,9.07
2022-11-28T22:19:43.502Z,7.97
2022-11-28T22:24:50.114Z,7.25
2022-11-28T22:30:35.126Z,7.38
2022-11-28T22:35:46.057Z,7.25
2022-11-28T22:40:51.215Z,6.93
2022-11-28T22:46:17.702Z,6.20
2022-11-28T22:51:25.330Z,7.68
2022-11-28T22:56:30.680Z,7.68
2022-11-28T23:01:38.513Z,7.05
2022-11-28T23:06:43.977Z,6.68
2022-11-28T23:11:49.204Z,7.60
2022-11-28T23:16:57.319Z,8.20
2022-11-28T23:22:02.815Z,7.25
2022-11-28T23:27:07.905Z,7.68
2022-11-28T23:32:15.655Z,6.10
2022-11-28T23:37:21.485Z,6.53
2022-11-28T23:42:26.572Z,6.82
2022-11-28T23:47:34.510Z,7.93
2022-11-28T23:52:39.686Z,10.93
2022-11-28T23:57:44.784Z,7.93
